Time,TemperatureF,DewpointF,PressureIn,WindDirection,WindDirectionDegrees,WindSpeedMPH,WindSpeedGustMPH,Humidity,HourlyPrecipIn,Conditions,Clouds,dailyrainin,SoftwareType,DateUTC
2013-01-17 00:00:00,23.9,16.2,29.76,SW,225,0.0,0.0,72,0.00,CLR,,0.00,WeatherDisplay:10.37,2013-01-17 07:00:00,
2013-01-17 08:01:00,15.3,8.2,29.75,ESE,112,0.0,0.0,73,0.00,CLR,,0.00,WeatherDisplay:10.37,2013-01-17 15:01:00,
2013-01-17 08:06:00,15.1,8.3,29.75,NNE,22,0.0,0.0,74,0.00,CLR,,0.00,WeatherDisplay:10.37,2013-01-17 15:06:00,
2013-01-17 08:11:00,15.3,8.5,29.75,NW,315,0.0,0.0,74,0.00,CLR,,0.00,WeatherDisplay:10.37,2013-01-17 15:11:00,
2013-01-17 08:16:00,15.3,8.5,29.76,North,0,0.0,0.0,74,0.00,CLR,,0.00,WeatherDisplay:10.37,2013-01-17 15:16:00,
2013-01-17 08:21:00,15.3,8.5,29.76,North,0,0.0,0.0,74,0.00,CLR,,0.00,WeatherDisplay:10.37,2013-01-17 15:21:00,
2013-01-17 08:26:00,15.3,8.5,29.76,NW,315,0.0,0.0,74,0.00,CLR,,0.00,WeatherDisplay:10.37,2013-01-17 15:26:00,
2013-01-17 08:31:00,15.1,8.3,29.76,NNW,338,0.0,0.0,74,0.00,CLR,,0.00,WeatherDisplay:10.37,2013-01-17 15:31:00,
2013-01-17 08:36:00,15.3,8.5,29.76,North,0,0.0,0.0,74,0.00,CLR,,0.00,WeatherDisplay:10.37,2013-01-17 15:36:00,
2013-01-17 08:41:00,15.1,8.3,29.76,North,0,0.0,0.0,74,0.00,CLR,,0.00,WeatherDisplay:10.37,2013-01-17 15:41:00,
2013-01-17 08:46:00,15.3,8.5,29.76,North,0,0.0,0.0,74,0.00,CLR,,0.00,WeatherDisplay:10.37,2013-01-17 15:46:00,
2013-01-17 08:51:00,15.3,8.5,29.76,ENE,68,0.0,0.0,74,0.00,CLR,,0.00,WeatherDisplay:10.37,2013-01-17 15:51:00,
2013-01-17 08:56:00,15.3,8.5,29.76,NNW,338,0.0,0.0,74,0.00,CLR,,0.00,WeatherDisplay:10.37,2013-01-17 15:56:00,
2013-01-17 09:01:00,15.3,8.5,29.76,SSE,158,0.0,0.0,74,0.00,CLR,,0.00,WeatherDisplay:10.37,2013-01-17 16:01:00,
2013-01-17 09:06:00,15.3,8.5,29.76,SSW,202,0.0,0.0,74,0.00,CLR,,0.00,WeatherDisplay:10.37,2013-01-17 16:06:00,
2013-01-17 09:11:00,15.3,8.5,29.76,NW,315,0.0,0.0,74,0.00,CLR,,0.00,WeatherDisplay:10.37,2013-01-17 16:11:00,
2013-01-17 09:16:00,15.4,8.6,29.77,NW,315,0.0,0.0,74,0.00,CLR,,0.00,WeatherDisplay:10.37,2013-01-17 16:16:00,
2013-01-17 09:21:00,15.6,8.8,29.77,NW,315,0.0,0.0,74,0.00,CLR,,0.00,WeatherDisplay:10.37,2013-01-17 16:21:00,
2013-01-17 09:26:00,15.6,8.8,29.77,NNW,338,0.0,0.0,74,0.00,CLR,,0.00,WeatherDisplay:10.37,2013-01-17 16:26:00,
2013-01-17 09:31:00,16.0,9.2,29.77,South,180,0.0,0.0,74,0.00,CLR,,0.00,WeatherDisplay:10.37,2013-01-17 16:31:00,
2013-01-17 09:36:00,16.0,9.2,29.77,North,0,0.0,0.0,74,0.00,CLR,,0.00,WeatherDisplay:10.37,2013-01-17 16:36:00,
2013-01-17 09:41:00,16.3,9.5,29.77,West,270,0.0,0.0,74,0.00,CLR,,0.00,WeatherDisplay:10.37,2013-01-17 16:41:00,
2013-01-17 09:46:00,16.7,9.8,29.77,NW,315,0.0,0.0,74,0.00,CLR,,0.00,WeatherDisplay:10.37,2013-01-17 16:46:00,
2013-01-17 09:51:00,16.9,10.0,29.77,NNW,338,0.0,0.0,74,0.00,CLR,,0.00,WeatherDisplay:10.37,2013-01-17 16:51:00,
2013-01-17 09:56:00,17.1,10.2,29.76,North,0,0.0,0.0,74,0.00,CLR,,0.00,WeatherDisplay:10.37,2013-01-17 16:56:00,
2013-01-17 10:01:00,17.4,10.5,29.76,NNW,338,0.0,0.0,74,0.00,CLR,,0.00,WeatherDisplay:10.37,2013-01-17 17:01:00,
2013-01-17 10:06:00,17.6,10.7,29.76,SSW,202,0.0,0.0,74,0.00,CLR,,0.00,WeatherDisplay:10.37,2013-01-17 17:06:00,
2013-01-17 10:11:00,18.1,11.2,29.76,SE,135,0.0,0.0,74,0.00,CLR,,0.00,WeatherDisplay:10.37,2013-01-17 17:11:00,
2013-01-17 10:16:00,18.3,11.4,29.75,WSW,248,0.0,0.0,74,0.00,CLR,,0.00,WeatherDisplay:10.37,2013-01-17 17:16:00,
2013-01-17 10:21:00,18.9,11.9,29.75,ENE,68,0.0,0.0,74,0.00,CLR,,0.00,WeatherDisplay:10.37,2013-01-17 17:21:00,
2013-01-17 10:26:00,19.0,12.1,29.75,ENE,68,0.0,0.0,74,0.00,CLR,,0.00,WeatherDisplay:10.37,2013-01-17 17:26:00,
2013-01-17 10:31:00,19.4,12.5,29.75,NNE,22,0.0,0.0,74,0.00,CLR,,0.00,WeatherDisplay:10.37,2013-01-17 17:31:00,
2013-01-17 10:36:00,19.9,13.0,29.75,SSE,158,0.0,0.0,74,0.00,CLR,,0.00,WeatherDisplay:10.37,2013-01-17 17:36:00,
2013-01-17 10:41:00,20.3,13.3,29.75,East,90,0.0,0.0,74,0.00,CLR,,0.00,WeatherDisplay:10.37,2013-01-17 17:41:00,
2013-01-17 10:46:00,20.7,13.7,29.75,North,0,0.0,0.0,74,0.00,CLR,,0.00,WeatherDisplay:10.37,2013-01-17 17:46:00,
2013-01-17 10:51:00,21.4,14.4,29.75,NNE,22,0.0,0.0,74,0.00,CLR,,0.00,WeatherDisplay:10.37,2013-01-17 17:51:00,
2013-01-17 10:56:00,21.6,14.6,29.75,NNW,338,0.0,0.0,74,0.00,CLR,,0.00,WeatherDisplay:10.37,2013-01-17 17:56:00,
2013-01-17 11:01:00,22.1,15.1,29.75,NW,315,0.0,0.0,74,0.00,CLR,,0.00,WeatherDisplay:10.37,2013-01-17 18:01:00,
2013-01-17 11:06:00,22.6,15.6,29.75,NNE,22,0.0,0.0,74,0.00,CLR,,0.00,WeatherDisplay:10.37,2013-01-17 18:06:00,
2013-01-17 11:11:00,23.2,16.1,29.75,WNW,292,0.0,0.0,74,0.00,CLR,,0.00,WeatherDisplay:10.37,2013-01-17 18:11:00,
2013-01-17 11:16:00,23.4,16.3,29.73,NNW,338,0.0,0.0,74,0.00,CLR,,0.00,WeatherDisplay:10.37,2013-01-17 18:16:00,
2013-01-17 11:21:00,23.9,16.5,29.73,WSW,248,0.0,0.0,73,0.00,CLR,,0.00,WeatherDisplay:10.37,2013-01-17 18:21:00,
2013-01-17 11:26:00,24.6,17.5,29.73,SW,225,0.0,0.0,74,0.00,CLR,,0.00,WeatherDisplay:10.37,2013-01-17 18:26:00,
2013-01-17 11:31:00,25.3,17.9,29.73,SW,225,0.0,0.0,73,0.00,CLR,,0.00,WeatherDisplay:10.37,2013-01-17 18:31:00,
2013-01-17 11:36:00,26.1,18.6,29.72,SSW,202,0.0,0.0,73,0.00,CLR,,0.00,WeatherDisplay:10.37,2013-01-17 18:36:00,
2013-01-17 11:41:00,27.1,19.3,29.72,SSE,158,2.3,2.3,72,0.00,CLR,,0.00,WeatherDisplay:10.37,2013-01-17 18:41:00,
2013-01-17 11:46:00,27.7,19.8,29.72,SW,225,0.0,0.3,72,0.00,CLR,,0.00,WeatherDisplay:10.37,2013-01-17 18:46:00,
2013-01-17 11:51:00,28.2,20.0,29.72,SSW,202,0.0,0.2,71,0.00,CLR,,0.00,WeatherDisplay:10.37,2013-01-17 18:51:00,
2013-01-17 11:56:00,28.9,20.7,29.71,SW,225,0.0,0.0,71,0.00,CLR,,0.00,WeatherDisplay:10.37,2013-01-17 18:56:00,
2013-01-17 12:01:00,29.7,21.4,29.71,SW,225,0.0,0.0,71,0.00,CLR,,0.00,WeatherDisplay:10.37,2013-01-17 19:01:00,
2013-01-17 12:06:00,29.7,21.4,29.71,SW,225,0.0,0.0,71,0.00,CLR,,0.00,WeatherDisplay:10.37,2013-01-17 19:06:00,
2013-01-17 12:11:00,29.7,21.4,29.71,SW,225,0.0,0.0,71,0.00,CLR,,0.00,WeatherDisplay:10.37,2013-01-17 19:11:00,
2013-01-17 12:16:00,30.9,21.9,29.71,West,270,0.0,0.0,69,0.00,CLR,,0.00,WeatherDisplay:10.37,2013-01-17 19:16:00,
2013-01-17 12:21:00,31.8,22.8,29.71,WNW,292,0.0,0.0,69,0.00,CLR,,0.00,WeatherDisplay:10.37,2013-01-17 19:21:00,
2013-01-17 12:26:00,31.8,22.5,29.71,WSW,248,0.0,0.0,68,0.00,CLR,,0.00,WeatherDisplay:10.37,2013-01-17 19:26:00,
2013-01-17 12:31:00,32.4,23.0,29.71,SE,135,0.0,0.1,68,0.00,CLR,,0.00,WeatherDisplay:10.37,2013-01-17 19:31:00,
2013-01-17 12:36:00,32.7,23.3,29.70,SE,135,0.0,0.1,68,0.00,CLR,,0.00,WeatherDisplay:10.37,2013-01-17 19:36:00,
2013-01-17 12:41:00,33.4,23.7,29.70,SE,135,0.0,0.3,67,0.00,CLR,,0.00,WeatherDisplay:10.37,2013-01-17 19:41:00,
2013-01-17 12:46:00,33.6,23.8,29.70,SW,225,0.0,0.3,67,0.00,CLR,,0.00,WeatherDisplay:10.37,2013-01-17 19:46:00,
2013-01-17 12:51:00,34.2,24.3,29.70,ESE,112,2.3,2.3,67,0.00,CLR,,0.00,WeatherDisplay:10.37,2013-01-17 19:51:00,
2013-01-17 12:56:00,34.3,24.2,29.69,NE,45,0.0,0.3,66,0.00,CLR,,0.00,WeatherDisplay:10.37,2013-01-17 19:56:00,
2013-01-17 13:01:00,34.5,24.3,29.69,NNE,22,0.0,0.0,66,0.00,CLR,,0.00,WeatherDisplay:10.37,2013-01-17 20:01:00,
2013-01-17 13:06:00,34.9,24.7,29.69,North,0,0.0,0.0,66,0.00,CLR,,0.00,WeatherDisplay:10.37,2013-01-17 20:06:00,
2013-01-17 13:11:00,35.1,24.5,29.69,SSE,158,2.3,2.3,65,0.00,CLR,,0.00,WeatherDisplay:10.37,2013-01-17 20:11:00,
2013-01-17 13:16:00,35.4,24.8,29.69,WSW,248,0.0,0.3,65,0.00,CLR,,0.00,WeatherDisplay:10.37,2013-01-17 20:16:00,
2013-01-17 13:21:00,35.8,25.2,29.69,SE,135,0.0,0.3,65,0.00,CLR,,0.00,WeatherDisplay:10.37,2013-01-17 20:21:00,
2013-01-17 13:26:00,35.8,25.2,29.69,NE,45,0.0,0.0,65,0.00,CLR,,0.00,WeatherDisplay:10.37,2013-01-17 20:26:00,
2013-01-17 13:31:00,36.1,25.5,29.69,SW,225,0.0,0.0,65,0.00,CLR,,0.00,WeatherDisplay:10.37,2013-01-17 20:31:00,
2013-01-17 13:36:00,36.3,25.7,29.67,ENE,68,0.0,0.0,65,0.00,CLR,,0.00,WeatherDisplay:10.37,2013-01-17 20:36:00,
2013-01-17 13:41:00,36.9,25.8,29.67,SSE,158,1.1,1.1,64,0.00,CLR,,0.00,WeatherDisplay:10.37,2013-01-17 20:41:00,
2013-01-17 13:46:00,36.9,25.8,29.67,WSW,248,0.0,0.1,64,0.00,CLR,,0.00,WeatherDisplay:10.37,2013-01-17 20:46:00,
2013-01-17 13:51:00,37.2,25.8,29.67,East,90,2.3,2.3,63,0.00,CLR,,0.00,WeatherDisplay:10.37,2013-01-17 20:51:00,
2013-01-17 13:56:00,37.6,26.1,29.67,WSW,248,0.0,0.5,63,0.00,CLR,,0.00,WeatherDisplay:10.37,2013-01-17 20:56:00,
2013-01-17 14:01:00,37.9,26.5,29.67,SW,225,0.0,0.0,63,0.00,CLR,,0.00,WeatherDisplay:10.37,2013-01-17 21:01:00,
2013-01-17 14:06:00,37.9,26.5,29.67,South,180,2.4,2.4,63,0.00,CLR,,0.00,WeatherDisplay:10.37,2013-01-17 21:06:00,
2013-01-17 14:11:00,38.3,26.4,29.67,SE,135,3.5,3.5,62,0.00,CLR,,0.00,WeatherDisplay:10.37,2013-01-17 21:11:00,
2013-01-17 14:16:00,38.5,26.6,29.66,SE,135,0.0,0.9,62,0.00,CLR,,0.00,WeatherDisplay:10.37,2013-01-17 21:16:00,
2013-01-17 14:21:00,38.7,26.8,29.66,NNW,338,0.0,0.0,62,0.00,CLR,,0.00,WeatherDisplay:10.37,2013-01-17 21:21:00,
2013-01-17 14:26:00,38.7,26.8,29.66,NE,45,0.0,0.0,62,0.00,CLR,,0.00,WeatherDisplay:10.37,2013-01-17 21:26:00,
2013-01-17 14:31:00,38.5,26.6,29.66,SSW,202,0.0,0.0,62,0.00,CLR,,0.00,WeatherDisplay:10.37,2013-01-17 21:31:00,
2013-01-17 14:36:00,38.5,27.0,29.65,North,0,0.0,0.0,63,0.00,CLR,,0.00,WeatherDisplay:10.37,2013-01-17 21:36:00,
2013-01-17 14:41:00,38.5,27.0,29.65,North,0,0.0,0.0,63,0.00,CLR,,0.00,WeatherDisplay:10.37,2013-01-17 21:41:00,
2013-01-17 14:46:00,38.7,27.1,29.65,SSW,202,0.0,0.0,63,0.00,CLR,,0.00,WeatherDisplay:10.37,2013-01-17 21:46:00,
2013-01-17 14:51:00,38.8,27.3,29.65,SSW,202,0.0,0.0,63,0.00,CLR,,0.00,WeatherDisplay:10.37,2013-01-17 21:51:00,
2013-01-17 14:56:00,38.8,27.3,29.65,SE,135,0.0,0.0,63,0.00,CLR,,0.00,WeatherDisplay:10.37,2013-01-17 21:56:00,
2013-01-17 15:01:00,38.8,27.3,29.65,NE,45,0.0,0.0,63,0.00,CLR,,0.00,WeatherDisplay:10.37,2013-01-17 22:01:00,
2013-01-17 15:06:00,39.0,27.5,29.65,NNW,338,0.0,0.0,63,0.00,CLR,,0.00,WeatherDisplay:10.37,2013-01-17 22:06:00,
2013-01-17 15:11:00,39.0,27.5,29.65,East,90,2.3,2.3,63,0.00,CLR,,0.00,WeatherDisplay:10.37,2013-01-17 22:11:00,
2013-01-17 15:16:00,39.0,27.5,29.65,WNW,292,0.0,0.1,63,0.00,CLR,,0.00,WeatherDisplay:10.37,2013-01-17 22:16:00,
2013-01-17 15:21:00,39.0,27.9,29.65,SSE,158,0.0,0.0,64,0.00,CLR,,0.00,WeatherDisplay:10.37,2013-01-17 22:21:00,
2013-01-17 15:26:00,39.0,27.9,29.65,NNW,338,0.0,0.0,64,0.00,CLR,,0.00,WeatherDisplay:10.37,2013-01-17 22:26:00,
2013-01-17 15:31:00,38.7,27.5,29.65,South,180,0.0,0.0,64,0.00,CLR,,0.00,WeatherDisplay:10.37,2013-01-17 22:31:00,
2013-01-17 15:36:00,38.5,27.4,29.65,ENE,68,0.0,0.0,64,0.00,CLR,,0.00,WeatherDisplay:10.37,2013-01-17 22:36:00,
2013-01-17 15:41:00,38.5,27.4,29.65,SSE,158,0.0,0.0,64,0.00,CLR,,0.00,WeatherDisplay:10.37,2013-01-17 22:41:00,
2013-01-17 15:46:00,38.3,27.2,29.65,ENE,68,0.0,0.0,64,0.00,CLR,,0.00,WeatherDisplay:10.37,2013-01-17 22:46:00,
2013-01-17 15:51:00,38.3,27.2,29.65,NNW,338,0.0,0.0,64,0.00,CLR,,0.00,WeatherDisplay:10.37,2013-01-17 22:51:00,
2013-01-17 15:56:00,37.9,27.2,29.65,North,0,0.0,0.0,65,0.00,CLR,,0.00,WeatherDisplay:10.37,2013-01-17 22:56:00,
2013-01-17 16:01:00,37.8,27.0,29.65,NNW,338,0.0,0.0,65,0.00,CLR,,0.00,WeatherDisplay:10.37,2013-01-17 23:01:00,
2013-01-17 16:06:00,37.6,26.9,29.65,SW,225,0.0,0.0,65,0.00,CLR,,0.00,WeatherDisplay:10.37,2013-01-17 23:06:00,
2013-01-17 16:11:00,37.2,26.5,29.65,East,90,0.0,0.0,65,0.00,CLR,,0.00,WeatherDisplay:10.37,2013-01-17 23:11:00,
2013-01-17 16:16:00,37.0,26.4,29.65,NNW,338,0.0,0.0,65,0.00,CLR,,0.00,WeatherDisplay:10.37,2013-01-17 23:16:00,
2013-01-17 16:21:00,37.0,26.4,29.65,NNW,338,0.0,0.0,65,0.00,CLR,,0.00,WeatherDisplay:10.37,2013-01-17 23:21:00,
2013-01-17 16:26:00,36.7,26.0,29.65,North,0,0.0,0.0,65,0.00,CLR,,0.00,WeatherDisplay:10.37,2013-01-17 23:26:00,
2013-01-17 16:31:00,36.3,25.7,29.65,NE,45,0.0,0.0,65,0.00,CLR,,0.00,WeatherDisplay:10.37,2013-01-17 23:31:00,
2013-01-17 16:36:00,36.1,25.5,29.63,ENE,68,0.0,0.0,65,0.00,CLR,,0.00,WeatherDisplay:10.37,2013-01-17 23:36:00,
2013-01-17 16:41:00,35.8,25.2,29.63,East,90,0.0,0.0,65,0.00,CLR,,0.00,WeatherDisplay:10.37,2013-01-17 23:41:00,
2013-01-17 16:46:00,35.4,24.8,29.63,NW,315,0.0,0.0,65,0.00,CLR,,0.00,WeatherDisplay:10.37,2013-01-17 23:46:00,
2013-01-17 16:51:00,35.1,24.8,29.63,NW,315,0.0,0.0,66,0.00,CLR,,0.00,WeatherDisplay:10.37,2013-01-17 23:51:00,
2013-01-17 16:56:00,34.7,24.5,29.63,ENE,68,0.0,0.0,66,0.00,CLR,,0.00,WeatherDisplay:10.37,2013-01-17 23:56:00,
2013-01-17 17:01:00,34.5,24.3,29.63,North,0,0.0,0.0,66,0.00,CLR,,0.00,WeatherDisplay:10.37,2013-01-18 00:01:00,
2013-01-17 17:06:00,34.2,24.3,29.63,NNW,338,0.0,0.0,67,0.00,CLR,,0.00,WeatherDisplay:10.37,2013-01-18 00:06:00,
2013-01-17 17:11:00,34.0,23.8,29.63,NW,315,0.0,0.0,66,0.00,CLR,,0.00,WeatherDisplay:10.37,2013-01-18 00:11:00,
2013-01-17 17:16:00,33.6,23.5,29.63,NNE,22,0.0,0.0,66,0.00,CLR,,0.00,WeatherDisplay:10.37,2013-01-18 00:16:00,
2013-01-17 17:21:00,33.6,23.8,29.63,East,90,0.0,0.0,67,0.00,CLR,,0.00,WeatherDisplay:10.37,2013-01-18 00:21:00,
2013-01-17 17:26:00,33.4,23.7,29.63,NNW,338,0.0,0.0,67,0.00,CLR,,0.00,WeatherDisplay:10.37,2013-01-18 00:26:00,
2013-01-17 17:31:00,33.1,23.3,29.63,NNW,338,0.0,0.0,67,0.00,CLR,,0.00,WeatherDisplay:10.37,2013-01-18 00:31:00,
2013-01-17 17:36:00,33.1,23.3,29.62,North,0,0.0,0.0,67,0.00,CLR,,0.00,WeatherDisplay:10.37,2013-01-18 00:36:00,
2013-01-17 17:41:00,33.1,23.3,29.62,North,0,0.0,0.0,67,0.00,CLR,,0.00,WeatherDisplay:10.37,2013-01-18 00:41:00,
2013-01-17 17:47:00,32.9,23.5,29.62,NW,315,0.0,0.0,68,0.00,CLR,,0.00,WeatherDisplay:10.37,2013-01-18 00:47:00,
2013-01-17 17:52:00,32.9,23.5,29.62,SW,225,0.0,0.0,68,0.00,CLR,,0.00,WeatherDisplay:10.37,2013-01-18 00:52:00,
2013-01-17 17:57:00,32.5,23.1,29.62,ENE,68,0.0,0.0,68,0.00,CLR,,0.00,WeatherDisplay:10.37,2013-01-18 00:57:00,
2013-01-17 18:02:00,32.5,23.1,29.62,West,270,0.0,0.0,68,0.00,CLR,,0.00,WeatherDisplay:10.37,2013-01-18 01:02:00,
2013-01-17 18:07:00,32.2,22.8,29.62,North,0,0.0,0.0,68,0.00,CLR,,0.00,WeatherDisplay:10.37,2013-01-18 01:07:00,
2013-01-17 18:12:00,32.2,22.8,29.62,North,0,0.0,0.0,68,0.00,CLR,,0.00,WeatherDisplay:10.37,2013-01-18 01:12:00,
2013-01-17 18:17:00,31.8,22.5,29.61,ESE,112,0.0,0.0,68,0.00,CLR,,0.00,WeatherDisplay:10.37,2013-01-18 01:17:00,
2013-01-17 18:22:00,31.8,22.5,29.61,ESE,112,0.0,0.0,68,0.00,CLR,,0.00,WeatherDisplay:10.37,2013-01-18 01:22:00,
2013-01-17 18:27:00,31.5,22.1,29.61,NE,45,0.0,0.0,68,0.00,CLR,,0.00,WeatherDisplay:10.37,2013-01-18 01:27:00,
2013-01-17 18:32:00,31.3,21.9,29.61,NNW,338,0.0,0.0,68,0.00,CLR,,0.00,WeatherDisplay:10.37,2013-01-18 01:32:00,
2013-01-17 18:37:00,31.5,22.1,29.61,SSE,158,0.0,0.0,68,0.00,CLR,,0.00,WeatherDisplay:10.37,2013-01-18 01:37:00,
2013-01-17 18:43:00,31.1,21.8,29.61,SSE,158,0.0,0.0,68,0.00,CLR,,0.00,WeatherDisplay:10.37,2013-01-18 01:43:00,
2013-01-17 18:48:00,31.1,21.8,29.61,SW,225,0.0,0.0,68,0.00,CLR,,0.00,WeatherDisplay:10.37,2013-01-18 01:48:00,
2013-01-17 18:53:00,30.7,21.8,29.61,North,0,0.0,0.0,69,0.00,CLR,,0.00,WeatherDisplay:10.37,2013-01-18 01:53:00,
2013-01-17 18:58:00,30.6,21.6,29.60,SSW,202,0.0,0.0,69,0.00,CLR,,0.00,WeatherDisplay:10.37,2013-01-18 01:58:00,
2013-01-17 19:03:00,30.4,21.4,29.60,NE,45,0.0,0.0,69,0.00,CLR,,0.00,WeatherDisplay:10.37,2013-01-18 02:03:00,
2013-01-17 19:08:00,30.4,21.4,29.60,North,0,0.0,0.0,69,0.00,CLR,,0.00,WeatherDisplay:10.37,2013-01-18 02:08:00,
2013-01-17 19:13:00,30.4,21.4,29.60,North,0,0.0,0.0,69,0.00,CLR,,0.00,WeatherDisplay:10.37,2013-01-18 02:13:00,
2013-01-17 19:18:00,30.4,21.4,29.60,North,0,0.0,0.0,69,0.00,CLR,,0.00,WeatherDisplay:10.37,2013-01-18 02:18:00,
2013-01-17 19:23:00,30.2,21.2,29.60,NW,315,0.0,0.0,69,0.00,CLR,,0.00,WeatherDisplay:10.37,2013-01-18 02:23:00,
2013-01-17 19:28:00,30.4,21.4,29.60,SSE,158,0.0,0.0,69,0.00,CLR,,0.00,WeatherDisplay:10.37,2013-01-18 02:28:00,
2013-01-17 19:33:00,30.0,21.1,29.60,ENE,68,0.0,0.3,69,0.00,CLR,,0.00,WeatherDisplay:10.37,2013-01-18 02:33:00,
2013-01-17 19:38:00,30.0,21.1,29.58,SW,225,0.0,0.3,69,0.00,CLR,,0.00,WeatherDisplay:10.37,2013-01-18 02:38:00,
2013-01-17 19:43:00,30.4,21.4,29.58,SSW,202,0.0,0.0,69,0.00,CLR,,0.00,WeatherDisplay:10.37,2013-01-18 02:43:00,
2013-01-17 19:48:00,30.4,21.4,29.58,South,180,0.0,0.0,69,0.00,CLR,,0.00,WeatherDisplay:10.37,2013-01-18 02:48:00,
2013-01-17 19:53:00,30.4,21.4,29.58,SW,225,0.0,0.1,69,0.00,CLR,,0.00,WeatherDisplay:10.37,2013-01-18 02:53:00,
2013-01-17 19:58:00,30.4,21.4,29.59,NNW,338,0.0,0.2,69,0.00,CLR,,0.00,WeatherDisplay:10.37,2013-01-18 02:58:00,
2013-01-17 20:03:00,30.4,21.4,29.59,East,90,0.0,0.1,69,0.00,CLR,,0.00,WeatherDisplay:10.37,2013-01-18 03:03:00,
2013-01-17 20:08:00,30.4,21.4,29.59,SSW,202,0.0,0.0,69,0.00,CLR,,0.00,WeatherDisplay:10.37,2013-01-18 03:08:00,
2013-01-17 20:13:00,30.4,21.4,29.59,NNW,338,0.0,0.0,69,0.00,CLR,,0.00,WeatherDisplay:10.37,2013-01-18 03:13:00,
2013-01-17 20:18:00,30.4,21.4,29.57,SE,135,2.3,2.3,69,0.00,CLR,,0.00,WeatherDisplay:10.37,2013-01-18 03:18:00,
2013-01-17 20:23:00,30.4,21.4,29.57,NE,45,0.0,0.2,69,0.00,CLR,,0.00,WeatherDisplay:10.37,2013-01-18 03:23:00,
2013-01-17 20:28:00,30.4,21.4,29.57,NW,315,0.0,0.0,69,0.00,CLR,,0.00,WeatherDisplay:10.37,2013-01-18 03:28:00,
2013-01-17 20:33:00,30.4,21.4,29.57,NNE,22,0.0,0.0,69,0.00,CLR,,0.00,WeatherDisplay:10.37,2013-01-18 03:33:00,
2013-01-17 20:38:00,30.4,21.4,29.58,ENE,68,0.0,0.0,69,0.00,CLR,,0.00,WeatherDisplay:10.37,2013-01-18 03:38:00,
2013-01-17 20:43:00,30.4,21.4,29.58,NNW,338,0.0,0.0,69,0.00,CLR,,0.00,WeatherDisplay:10.37,2013-01-18 03:43:00,
2013-01-17 20:48:00,30.4,21.4,29.58,ENE,68,0.0,0.0,69,0.00,CLR,,0.00,WeatherDisplay:10.37,2013-01-18 03:48:00,
2013-01-17 20:53:00,30.0,21.1,29.59,NNW,338,0.0,0.0,69,0.00,CLR,,0.00,WeatherDisplay:10.37,2013-01-18 03:53:00,
2013-01-17 20:58:00,30.0,21.1,29.59,North,0,0.0,0.0,69,0.00,CLR,,0.00,WeatherDisplay:10.37,2013-01-18 03:58:00,
2013-01-17 21:03:00,29.8,20.9,29.59,NNW,338,0.0,0.0,69,0.00,CLR,,0.00,WeatherDisplay:10.37,2013-01-18 04:03:00,
2013-01-17 21:08:00,29.8,20.9,29.59,WSW,248,0.0,0.0,69,0.00,CLR,,0.00,WeatherDisplay:10.37,2013-01-18 04:08:00,
2013-01-17 21:13:00,30.0,21.1,29.59,NW,315,0.0,0.0,69,0.00,CLR,,0.00,WeatherDisplay:10.37,2013-01-18 04:13:00,
2013-01-17 21:18:00,29.7,21.1,29.59,WNW,292,0.0,0.0,70,0.00,CLR,,0.00,WeatherDisplay:10.37,2013-01-18 04:18:00,
2013-01-17 21:23:00,30.0,21.4,29.59,SSW,202,0.0,0.0,70,0.00,CLR,,0.00,WeatherDisplay:10.37,2013-01-18 04:23:00,
2013-01-17 21:28:00,29.7,21.1,29.59,ESE,112,0.0,0.0,70,0.00,CLR,,0.00,WeatherDisplay:10.37,2013-01-18 04:28:00,
2013-01-17 21:33:00,29.7,21.1,29.60,ESE,112,0.0,0.0,70,0.00,CLR,,0.00,WeatherDisplay:10.37,2013-01-18 04:33:00,
2013-01-17 21:38:00,29.7,21.1,29.60,SSE,158,0.0,0.0,70,0.00,CLR,,0.00,WeatherDisplay:10.37,2013-01-18 04:38:00,
2013-01-17 21:43:00,29.7,21.1,29.60,SSE,158,0.0,0.0,70,0.00,CLR,,0.00,WeatherDisplay:10.37,2013-01-18 04:43:00,
2013-01-17 23:55:00,26.8,18.6,29.59,NNE,22,0.0,0.0,71,0.00,CLR,,0.00,WeatherDisplay:10.37,2013-01-18 06:55:00,
2013-01-17 23:56:00,26.8,18.6,29.59,NNE,22,0.0,0.0,71,0.00,CLR,,0.00,WeatherDisplay:10.37,2013-01-18 06:56:00,
2013-01-17 23:58:00,26.8,18.6,29.59,NNW,338,0.0,0.0,71,0.00,CLR,,0.00,WeatherDisplay:10.37,2013-01-18 06:58:00,